createdAt,value
2022-10-28T00:00:50.423Z,78.60
2022-10-28T00:01:52.027Z,78.84
2022-10-28T00:03:11.707Z,78.60
2022-10-28T00:04:13.225Z,78.75
2022-10-28T00:05:16.160Z,78.50
2022-10-28T00:06:19.541Z,78.49
2022-10-28T00:07:21.991Z,78.50
2022-10-28T00:08:23.586Z,78.29
2022-10-28T00:09:26.139Z,78.58
2022-10-28T00:10:27.669Z,78.46
2022-10-28T00:11:37.940Z,78.43
2022-10-28T00:12:39.661Z,78.56
2022-10-28T00:13:43.480Z,78.40
2022-10-28T00:14:44.967Z,78.45
2022-10-28T00:15:47.428Z,78.16
2022-10-28T00:16:49.074Z,78.49
2022-10-28T00:17:51.736Z,78.01
2022-10-28T00:18:54.216Z,78.25
2022-10-28T00:19:58.079Z,77.86
2022-10-28T00:21:01.931Z,78.12
2022-10-28T00:22:04.815Z,78.15
2022-10-28T00:23:06.334Z,77.80
2022-10-28T00:24:10.926Z,77.92
2022-10-28T00:25:12.448Z,77.64
2022-10-28T00:26:17.354Z,77.89
2022-10-28T00:27:20.223Z,77.98
2022-10-28T00:28:22.677Z,77.68
2022-10-28T00:29:25.360Z,77.85
2022-10-28T00:30:26.985Z,77.53
2022-10-28T00:31:31.549Z,77.46
2022-10-28T00:32:33.041Z,77.69
2022-10-28T00:33:35.863Z,77.78
2022-10-28T00:34:38.970Z,77.68
2022-10-28T00:35:41.459Z,77.83
2022-10-28T00:36:44.724Z,77.59
2022-10-28T00:37:47.232Z,77.59
2022-10-28T00:38:53.624Z,77.77
2022-10-28T00:39:56.079Z,77.50
2022-10-28T00:40:57.581Z,77.18
2022-10-28T00:42:03.523Z,77.37
2022-10-28T00:43:06.536Z,77.27
2022-10-28T00:44:46.188Z,77.49
2022-10-28T00:45:48.709Z,77.04
2022-10-28T00:46:53.188Z,76.86
2022-10-28T00:47:59.632Z,77.29
2022-10-28T00:49:06.450Z,77.10
2022-10-28T00:50:17.302Z,77.07
2022-10-28T00:51:20.891Z,76.95
2022-10-28T00:52:30.288Z,77.04
2022-10-28T00:53:32.928Z,77.18
2022-10-28T00:54:37.741Z,77.03
2022-10-28T00:55:40.069Z,76.70
2022-10-28T00:56:46.695Z,76.68
2022-10-28T00:57:49.264Z,76.86
2022-10-28T00:58:57.638Z,76.95
2022-10-28T01:00:01.509Z,76.38
2022-10-28T01:01:08.378Z,76.64
2022-10-28T01:02:10.124Z,76.48
2022-10-28T01:03:13.672Z,76.78
2022-10-28T01:04:16.374Z,76.66
2022-10-28T01:05:23.272Z,76.57
2022-10-28T01:06:28.537Z,76.66
2022-10-28T01:07:30.495Z,76.33
2022-10-28T01:08:33.466Z,76.73
2022-10-28T01:09:34.952Z,76.68
2022-10-28T01:11:05.501Z,76.38
2022-10-28T01:12:17.539Z,76.25
2022-10-28T01:13:34.371Z,76.27
2022-10-28T01:14:51.533Z,76.66
2022-10-28T01:16:03.515Z,76.56
2022-10-28T01:17:20.446Z,76.32
2022-10-28T01:18:28.411Z,76.46
2022-10-28T01:20:08.298Z,76.55
2022-10-28T01:21:44.391Z,76.62
2022-10-28T01:22:51.844Z,76.16
2022-10-28T01:24:10.814Z,76.16
2022-10-28T01:25:33.350Z,76.29
2022-10-28T01:27:05.256Z,76.36
2022-10-28T01:28:22.523Z,76.17
2022-10-28T01:29:56.763Z,76.50
2022-10-28T01:31:24.038Z,76.69
2022-10-28T01:32:33.202Z,76.50
2022-10-28T01:33:37.649Z,76.39
2022-10-28T01:34:52.982Z,76.46
2022-10-28T01:35:58.377Z,76.32
2022-10-28T01:37:06.421Z,76.53
2022-10-28T01:38:26.107Z,75.99
2022-10-28T01:39:33.304Z,75.93
2022-10-28T01:40:43.052Z,76.19
2022-10-28T01:41:51.661Z,76.08
2022-10-28T01:42:58.313Z,76.11
2022-10-28T01:44:05.021Z,76.33
2022-10-28T01:45:15.227Z,76.24
2022-10-28T01:46:25.492Z,76.15
2022-10-28T01:47:31.353Z,76.15
2022-10-28T01:49:49.060Z,75.98
2022-10-28T01:50:56.743Z,76.32
2022-10-28T01:52:04.223Z,76.01
2022-10-28T01:53:10.646Z,76.19
2022-10-28T01:54:23.856Z,76.34
2022-10-28T01:55:28.304Z,75.84
2022-10-28T01:56:35.488Z,75.91
2022-10-28T01:57:40.821Z,75.92
2022-10-28T01:58:44.002Z,76.29
2022-10-28T01:59:48.066Z,76.29
2022-10-28T02:00:50.967Z,76.55
2022-10-28T02:01:55.176Z,76.12
2022-10-28T02:02:56.968Z,76.67
2022-10-28T02:03:59.613Z,76.50
2022-10-28T02:05:05.857Z,76.60
2022-10-28T02:06:16.722Z,76.35
2022-10-28T02:07:18.324Z,76.64
2022-10-28T02:08:46.061Z,76.52
2022-10-28T02:10:01.143Z,76.69
2022-10-28T02:11:28.077Z,76.61
2022-10-28T02:12:31.960Z,76.94
2022-10-28T02:13:41.127Z,76.82
2022-10-28T02:15:00.482Z,76.98
2022-10-28T02:16:11.093Z,76.89
2022-10-28T02:17:24.179Z,77.16
2022-10-28T02:18:34.991Z,77.44
2022-10-28T02:19:48.072Z,77.28
2022-10-28T02:20:55.011Z,77.08
2022-10-28T02:22:10.731Z,77.23
2022-10-28T02:23:22.679Z,77.22
2022-10-28T02:24:37.271Z,77.36
2022-10-28T02:25:46.299Z,77.54
2022-10-28T02:26:53.410Z,77.49
2022-10-28T02:27:59.959Z,77.72
2022-10-28T02:29:06.157Z,77.70
2022-10-28T02:30:13.826Z,77.79
2022-10-28T02:31:22.380Z,77.63
2022-10-28T02:32:31.493Z,77.90
2022-10-28T02:33:38.174Z,77.75
2022-10-28T02:34:46.335Z,77.87
2022-10-28T02:35:53.372Z,77.70
2022-10-28T02:36:59.269Z,77.89
2022-10-28T02:38:05.638Z,77.78
2022-10-28T02:39:10.752Z,77.88
2022-10-28T02:40:19.106Z,78.01
2022-10-28T02:41:26.363Z,77.93
2022-10-28T02:42:31.763Z,77.88
2022-10-28T02:43:38.089Z,77.92
2022-10-28T02:44:45.453Z,78.24
2022-10-28T02:45:52.570Z,78.05
2022-10-28T02:46:57.643Z,77.88
2022-10-28T02:48:05.903Z,77.96
2022-10-28T02:49:10.745Z,77.85
2022-10-28T02:50:17.980Z,78.27
2022-10-28T02:51:23.170Z,77.93
2022-10-28T02:52:29.115Z,78.08
2022-10-28T02:53:33.117Z,78.27
2022-10-28T02:54:41.069Z,78.15
2022-10-28T02:55:45.465Z,78.39
2022-10-28T02:56:53.931Z,78.29
2022-10-28T02:57:57.336Z,78.39
2022-10-28T02:59:00.156Z,78.31
2022-10-28T03:00:06.927Z,78.23
2022-10-28T03:01:10.073Z,78.18
2022-10-28T03:02:12.705Z,78.65
2022-10-28T03:03:15.596Z,78.52
2022-10-28T03:04:18.109Z,78.56
2022-10-28T03:05:20.679Z,78.46
2022-10-28T03:07:25.035Z,78.37
2022-10-28T03:08:27.495Z,78.38
2022-10-28T03:09:28.981Z,78.63
2022-10-28T03:10:31.484Z,78.50
2022-10-28T03:11:33.035Z,78.76
2022-10-28T03:12:35.525Z,78.55
2022-10-28T03:13:37.016Z,78.67
2022-10-28T03:14:39.596Z,78.76
2022-10-28T03:15:41.105Z,78.84
2022-10-28T03:16:43.889Z,79.06
2022-10-28T03:17:45.539Z,78.79
2022-10-28T03:18:50.248Z,78.80
2022-10-28T03:19:51.762Z,79.00
2022-10-28T03:20:56.747Z,78.99
2022-10-28T03:22:00.531Z,78.96
2022-10-28T03:23:02.996Z,78.88
2022-10-28T03:24:04.875Z,79.11
2022-10-28T03:25:07.736Z,79.10
2022-10-28T03:26:09.395Z,79.04
2022-10-28T03:27:11.868Z,79.21
2022-10-28T03:28:13.406Z,79.28
2022-10-28T03:29:16.042Z,79.16
2022-10-28T03:30:18.968Z,79.07
2022-10-28T03:31:21.459Z,79.11
2022-10-28T03:33:30.453Z,79.37
2022-10-28T03:34:33.382Z,79.30
2022-10-28T03:35:35.876Z,79.41
2022-10-28T03:36:38.407Z,79.35
2022-10-28T03:39:56.887Z,79.32
2022-10-28T03:41:47.356Z,79.22
2022-10-28T03:42:49.488Z,79.43
2022-10-28T03:43:51.961Z,79.31
2022-10-28T03:44:53.449Z,79.41
2022-10-28T03:45:55.940Z,79.70
2022-10-28T03:46:57.482Z,79.61
2022-10-28T03:47:59.996Z,79.55
2022-10-28T03:49:01.574Z,79.62
2022-10-28T03:50:05.994Z,79.54
2022-10-28T03:51:07.779Z,79.55
2022-10-28T03:52:10.512Z,79.68
2022-10-28T03:53:12.113Z,79.58
2022-10-28T03:54:14.673Z,79.61
2022-10-28T03:55:16.603Z,79.56
2022-10-28T03:56:19.110Z,79.51
2022-10-28T03:57:20.622Z,79.60
2022-10-28T03:58:23.683Z,79.59
2022-10-28T03:59:25.247Z,79.53
2022-10-28T04:00:27.850Z,79.66
2022-10-28T04:01:32.706Z,79.66
2022-10-28T04:02:35.262Z,79.58
2022-10-28T04:03:36.838Z,79.56
2022-10-28T04:04:39.305Z,79.68
2022-10-28T04:05:42.465Z,79.55
2022-10-28T04:06:44.933Z,79.37
2022-10-28T04:07:46.891Z,79.62
2022-10-28T04:08:49.378Z,79.38
2022-10-28T04:09:51.339Z,79.39
2022-10-28T04:10:53.788Z,79.49
2022-10-28T04:11:55.359Z,79.51
2022-10-28T04:13:00.893Z,79.33
2022-10-28T04:14:02.508Z,79.23
2022-10-28T04:15:05.906Z,79.24
2022-10-28T04:16:07.540Z,79.37
2022-10-28T04:17:10.088Z,79.26
2022-10-28T04:18:12.724Z,79.18
2022-10-28T04:19:15.544Z,79.45
2022-10-28T04:20:17.387Z,79.36
2022-10-28T04:21:21.337Z,79.32
2022-10-28T04:22:22.835Z,79.13
2022-10-28T04:23:25.377Z,79.41
2022-10-28T04:24:26.906Z,79.17
2022-10-28T04:25:29.552Z,79.20
2022-10-28T04:26:31.718Z,79.29
2022-10-28T04:27:34.208Z,79.10
2022-10-28T04:28:35.707Z,79.25
2022-10-28T04:29:38.177Z,79.03
2022-10-28T04:30:39.718Z,79.14
2022-10-28T04:31:42.263Z,79.13
2022-10-28T04:32:45.281Z,79.17
2022-10-28T04:33:47.758Z,79.07
2022-10-28T04:34:49.333Z,79.15
2022-10-28T04:35:51.805Z,79.14
2022-10-28T04:36:54.672Z,79.12
2022-10-28T04:37:57.324Z,79.09
2022-10-28T04:38:58.866Z,78.87
2022-10-28T04:40:01.369Z,78.96
2022-10-28T04:41:03.736Z,79.08
2022-10-28T04:42:06.289Z,79.03
2022-10-28T04:43:09.951Z,79.00
2022-10-28T04:44:12.848Z,79.04
2022-10-28T04:45:15.584Z,79.16
2022-10-28T04:46:18.043Z,79.03
2022-10-28T04:47:19.566Z,79.05
2022-10-28T04:48:22.334Z,78.82
2022-10-28T04:49:26.935Z,78.99
2022-10-28T04:50:28.575Z,78.91
2022-10-28T04:51:31.136Z,78.91
2022-10-28T04:52:34.067Z,78.95
2022-10-28T04:53:36.533Z,78.76
2022-10-28T04:54:38.403Z,78.89
2022-10-28T04:55:40.886Z,78.75
2022-10-28T04:56:42.476Z,78.92
2022-10-28T04:57:44.990Z,78.91
2022-10-28T04:58:48.364Z,78.80
2022-10-28T04:59:49.860Z,78.84
2022-10-28T05:00:52.361Z,78.77
2022-10-28T05:01:54.024Z,78.67
2022-10-28T05:02:57.254Z,78.53
2022-10-28T05:03:59.108Z,78.75
2022-10-28T05:05:03.556Z,78.70
2022-10-28T05:06:05.546Z,78.80
2022-10-28T05:07:08.509Z,78.47
2022-10-28T05:08:11.508Z,78.63
2022-10-28T05:09:14.354Z,78.42
2022-10-28T05:10:17.869Z,78.49
2022-10-28T05:11:20.399Z,78.65
2022-10-28T05:12:21.919Z,78.50
2022-10-28T05:13:24.494Z,78.42
2022-10-28T05:14:26.143Z,78.23
2022-10-28T05:15:28.606Z,78.53
2022-10-28T05:16:30.226Z,78.36
2022-10-28T05:17:32.731Z,78.40
2022-10-28T05:18:34.320Z,78.42
2022-10-28T05:19:36.895Z,78.41
2022-10-28T05:20:38.501Z,78.42
2022-10-28T05:21:41.015Z,78.16
2022-10-28T05:22:46.472Z,78.12
2022-10-28T05:23:50.306Z,78.25
2022-10-28T05:24:52.070Z,78.07
2022-10-28T05:25:54.920Z,78.29
2022-10-28T05:26:56.450Z,77.86
2022-10-28T05:28:00.125Z,77.92
2022-10-28T05:29:01.619Z,78.01
2022-10-28T05:30:05.186Z,78.01
2022-10-28T05:31:07.021Z,77.93
2022-10-28T05:32:09.454Z,78.12
2022-10-28T05:33:12.178Z,77.93
2022-10-28T05:34:13.725Z,77.87
2022-10-28T05:35:16.481Z,77.84
2022-10-28T05:36:18.968Z,77.82
2022-10-28T05:37:20.577Z,77.54
2022-10-28T05:38:23.204Z,77.83
2022-10-28T05:39:26.128Z,77.40
2022-10-28T05:40:28.659Z,77.60
2022-10-28T05:41:33.055Z,77.57
2022-10-28T05:42:41.996Z,77.58
2022-10-28T05:43:43.543Z,77.29
2022-10-28T05:44:46.743Z,77.39
2022-10-28T05:45:52.823Z,77.34
2022-10-28T05:46:55.672Z,77.53
2022-10-28T05:47:57.284Z,77.31
2022-10-28T05:48:59.856Z,77.42
2022-10-28T05:50:01.534Z,77.48
2022-10-28T05:51:04.057Z,77.59
2022-10-28T05:52:05.905Z,77.24
2022-10-28T05:53:08.385Z,77.42
2022-10-28T05:54:09.912Z,77.28
2022-10-28T05:55:13.806Z,77.09
2022-10-28T05:56:15.836Z,77.08
2022-10-28T05:57:18.434Z,77.20
2022-10-28T05:58:20.025Z,77.13
2022-10-28T05:59:22.725Z,77.24
2022-10-28T06:00:26.460Z,77.25
2022-10-28T06:01:32.924Z,77.19
2022-10-28T06:02:34.525Z,77.06
2022-10-28T06:03:37.121Z,77.24
2022-10-28T06:04:38.635Z,77.13
2022-10-28T06:05:44.001Z,76.84
2022-10-28T06:06:45.532Z,76.98
2022-10-28T06:07:48.316Z,77.00
2022-10-28T06:08:49.891Z,77.15
2022-10-28T06:09:52.780Z,76.97
2022-10-28T06:10:54.251Z,76.92
2022-10-28T06:11:56.748Z,76.90
2022-10-28T06:12:58.364Z,77.14
2022-10-28T06:14:01.075Z,77.17
2022-10-28T06:15:03.562Z,76.97
2022-10-28T06:16:06.391Z,77.11
2022-10-28T06:17:07.925Z,77.12
2022-10-28T06:18:13.269Z,77.21
2022-10-28T06:19:15.875Z,77.32
2022-10-28T06:20:18.554Z,77.20
2022-10-28T06:21:20.187Z,77.27
2022-10-28T06:22:22.711Z,76.94
2022-10-28T06:23:27.085Z,76.94
2022-10-28T06:24:29.881Z,77.10
2022-10-28T06:25:31.387Z,76.99
2022-10-28T06:26:35.337Z,77.22
2022-10-28T06:27:37.026Z,77.35
2022-10-28T06:28:39.562Z,77.30
2022-10-28T06:29:41.169Z,77.05
2022-10-28T06:30:43.726Z,76.98
2022-10-28T06:31:45.355Z,76.93
2022-10-28T06:32:47.983Z,77.36
2022-10-28T06:33:49.778Z,77.35
2022-10-28T06:34:52.865Z,77.13
2022-10-28T06:35:55.545Z,77.19
2022-10-28T06:36:58.202Z,77.33
2022-10-28T06:37:59.766Z,77.24
2022-10-28T06:39:02.842Z,77.02
2022-10-28T06:40:06.866Z,77.04
2022-10-28T06:41:09.393Z,77.20
2022-10-28T06:42:12.262Z,77.15
2022-10-28T06:43:15.065Z,77.12
2022-10-28T06:44:16.595Z,77.06
2022-10-28T06:45:19.113Z,77.14
2022-10-28T06:46:20.902Z,77.29
2022-10-28T06:47:26.070Z,76.85
2022-10-28T06:48:28.626Z,76.89
2022-10-28T06:49:30.180Z,77.04
2022-10-28T06:50:35.282Z,77.10
2022-10-28T06:51:36.851Z,76.92
2022-10-28T06:52:39.387Z,77.00
2022-10-28T06:53:40.932Z,77.09
2022-10-28T06:54:44.076Z,76.86
2022-10-28T06:55:53.375Z,76.84
2022-10-28T06:56:56.287Z,76.77
2022-10-28T06:58:01.205Z,76.92
2022-10-28T06:59:03.737Z,76.84
2022-10-28T07:00:06.390Z,76.93
2022-10-28T07:01:11.795Z,76.84
2022-10-28T07:02:13.463Z,76.73
2022-10-28T07:03:16.357Z,76.71
2022-10-28T07:04:18.875Z,76.76
2022-10-28T07:05:21.226Z,76.80
2022-10-28T07:06:23.907Z,76.60
2022-10-28T07:07:26.021Z,76.44
2022-10-28T07:08:29.330Z,76.51
2022-10-28T07:09:33.434Z,76.52
2022-10-28T07:10:35.097Z,76.52
2022-10-28T07:11:37.746Z,76.51
2022-10-28T07:12:41.299Z,76.27
2022-10-28T07:13:48.115Z,76.53
2022-10-28T07:14:52.428Z,76.29
2022-10-28T07:15:57.062Z,76.49
2022-10-28T07:16:58.662Z,76.09
2022-10-28T07:18:02.485Z,76.33
2022-10-28T07:19:04.247Z,76.03
2022-10-28T07:20:08.339Z,76.20
2022-10-28T07:21:09.902Z,76.00
2022-10-28T07:22:12.421Z,76.11
2022-10-28T07:23:14.135Z,75.80
2022-10-28T07:24:16.664Z,75.74
2022-10-28T07:25:18.210Z,75.56
2022-10-28T07:26:20.956Z,75.74
2022-10-28T07:27:23.428Z,75.89
2022-10-28T07:28:27.329Z,75.91
2022-10-28T07:29:31.172Z,75.62
2022-10-28T07:30:33.761Z,75.86
2022-10-28T07:31:35.330Z,75.48
2022-10-28T07:32:37.781Z,75.43
2022-10-28T07:33:39.301Z,75.53
2022-10-28T07:34:41.775Z,75.33
2022-10-28T07:35:44.308Z,75.40
2022-10-28T07:36:54.694Z,75.39
2022-10-28T07:37:56.424Z,75.48
2022-10-28T07:38:58.894Z,74.97
2022-10-28T07:40:00.411Z,75.27
2022-10-28T07:41:05.587Z,75.01
2022-10-28T07:42:08.061Z,74.86
2022-10-28T07:43:09.685Z,75.23
2022-10-28T07:44:12.288Z,74.90
2022-10-28T07:45:15.396Z,74.87
2022-10-28T07:46:19.507Z,74.93
2022-10-28T07:47:22.068Z,74.83
2022-10-28T07:48:24.663Z,74.72
2022-10-28T07:49:26.273Z,74.93
2022-10-28T07:50:28.743Z,74.70
2022-10-28T07:51:33.232Z,74.62
2022-10-28T07:52:37.423Z,74.69
2022-10-28T07:53:40.703Z,74.65
2022-10-28T07:54:42.323Z,74.58
2022-10-28T07:55:44.817Z,74.52
2022-10-28T07:56:46.519Z,74.43
2022-10-28T07:57:49.447Z,74.25
2022-10-28T07:58:51.117Z,74.24
2022-10-28T07:59:53.652Z,74.22
2022-10-28T08:00:56.553Z,73.74
2022-10-28T08:01:59.210Z,74.13
2022-10-28T08:03:03.471Z,73.76
2022-10-28T08:04:06.321Z,73.59
2022-10-28T08:05:08.444Z,73.58
2022-10-28T08:06:13.570Z,73.76
2022-10-28T08:07:16.992Z,73.92
2022-10-28T08:08:19.549Z,73.58
2022-10-28T08:09:22.034Z,73.64
2022-10-28T08:10:24.914Z,73.43
2022-10-28T08:11:27.383Z,73.44
2022-10-28T08:12:30.758Z,73.16
2022-10-28T08:13:33.540Z,73.18
2022-10-28T08:14:37.412Z,73.11
2022-10-28T08:15:39.940Z,73.22
2022-10-28T08:16:43.773Z,73.58
2022-10-28T08:17:51.104Z,73.73
2022-10-28T08:18:54.056Z,73.47
2022-10-28T08:19:55.565Z,73.51
2022-10-28T08:22:08.316Z,73.47
2022-10-28T08:23:09.854Z,73.23
2022-10-28T08:24:12.328Z,73.02
2022-10-28T08:25:14.923Z,73.48
2022-10-28T08:26:17.997Z,73.25
2022-10-28T08:27:19.549Z,73.29
2022-10-28T08:28:22.491Z,73.38
2022-10-28T08:29:29.139Z,73.48
2022-10-28T08:30:40.398Z,73.15
2022-10-28T08:31:48.786Z,73.13
2022-10-28T08:32:51.555Z,73.04
2022-10-28T08:33:54.207Z,73.53
2022-10-28T08:34:56.700Z,73.26
2022-10-28T08:35:58.234Z,73.37
2022-10-28T08:37:00.767Z,72.96
2022-10-28T08:38:03.098Z,73.39
2022-10-28T08:39:06.040Z,73.24
2022-10-28T08:40:11.924Z,72.80
2022-10-28T08:41:25.682Z,72.79
2022-10-28T08:42:37.604Z,73.17
2022-10-28T08:43:57.528Z,72.93
2022-10-28T08:45:26.436Z,73.08
2022-10-28T08:46:38.855Z,72.81
2022-10-28T08:47:53.017Z,72.56
2022-10-28T08:48:54.850Z,72.71
2022-10-28T08:50:02.771Z,72.98
2022-10-28T08:51:10.083Z,72.87
2022-10-28T08:52:29.186Z,72.41
2022-10-28T08:53:38.632Z,72.27
2022-10-28T08:54:47.182Z,72.20
2022-10-28T08:55:53.628Z,72.59
2022-10-28T08:56:58.602Z,72.26
2022-10-28T08:58:08.255Z,72.11
2022-10-28T08:59:14.228Z,72.17
2022-10-28T09:00:24.014Z,71.71
2022-10-28T09:01:36.149Z,71.93
2022-10-28T09:02:53.306Z,71.91
2022-10-28T09:03:55.119Z,71.46
2022-10-28T09:05:03.335Z,71.46
2022-10-28T09:06:07.615Z,71.27
2022-10-28T09:07:15.809Z,71.67
2022-10-28T09:08:23.658Z,70.98
2022-10-28T09:09:26.181Z,71.13
2022-10-28T09:10:52.225Z,71.10
2022-10-28T09:12:23.088Z,71.29
2022-10-28T09:13:33.436Z,71.35
2022-10-28T09:14:47.507Z,70.92
2022-10-28T09:15:57.605Z,70.80
2022-10-28T09:17:07.258Z,70.85
2022-10-28T09:18:18.763Z,71.13
2022-10-28T09:19:37.857Z,70.81
2022-10-28T09:20:48.840Z,70.80
2022-10-28T09:21:56.317Z,70.87
2022-10-28T09:22:59.490Z,70.66
2022-10-28T09:24:12.251Z,70.18
2022-10-28T09:25:24.059Z,70.15
2022-10-28T09:26:34.404Z,70.13
2022-10-28T09:27:53.813Z,70.16
2022-10-28T09:29:05.601Z,69.89
2022-10-28T09:30:25.079Z,70.11
2022-10-28T09:31:35.566Z,69.91
2022-10-28T09:32:43.561Z,69.83
2022-10-28T09:34:07.935Z,69.29
2022-10-28T09:35:14.717Z,69.70
2022-10-28T09:36:23.020Z,69.31
2022-10-28T09:37:30.176Z,69.21
2022-10-28T09:38:34.580Z,68.90
2022-10-28T09:39:42.753Z,68.88
2022-10-28T09:40:51.297Z,68.67
2022-10-28T09:41:55.702Z,68.85
2022-10-28T09:43:02.830Z,69.31
2022-10-28T09:44:15.120Z,68.80
2022-10-28T09:45:21.708Z,69.12
2022-10-28T09:46:27.613Z,69.14
2022-10-28T09:47:36.721Z,68.83
2022-10-28T09:48:43.201Z,68.48
2022-10-28T09:49:48.235Z,68.83
2022-10-28T09:50:52.962Z,68.30
2022-10-28T09:52:02.641Z,68.12
2022-10-28T09:53:13.976Z,67.99
2022-10-28T09:54:17.808Z,68.37
2022-10-28T09:55:21.063Z,67.90
2022-10-28T09:56:24.091Z,67.95
2022-10-28T09:57:31.437Z,67.77
2022-10-28T09:58:34.139Z,67.70
2022-10-28T09:59:37.025Z,68.01
2022-10-28T10:00:38.728Z,67.62
2022-10-28T10:01:45.732Z,67.98
2022-10-28T10:02:48.780Z,67.43
2022-10-28T10:03:51.845Z,67.70
2022-10-28T10:04:56.555Z,67.57
2022-10-28T10:06:02.553Z,67.61
2022-10-28T10:07:08.790Z,67.74
2022-10-28T10:08:14.828Z,67.62
2022-10-28T10:09:22.561Z,67.25
2022-10-28T10:10:27.897Z,67.57
2022-10-28T10:11:35.745Z,67.45
2022-10-28T10:12:38.842Z,67.57
2022-10-28T10:13:44.734Z,67.54
2022-10-28T10:14:51.303Z,67.37
2022-10-28T10:15:56.531Z,67.26
2022-10-28T10:17:03.646Z,67.43
2022-10-28T10:18:12.279Z,67.34
2022-10-28T10:19:14.890Z,67.15
2022-10-28T10:20:19.578Z,66.81
2022-10-28T10:21:41.946Z,67.19
2022-10-28T10:22:46.202Z,66.90
2022-10-28T10:23:47.739Z,67.16
2022-10-28T10:24:50.869Z,67.10
2022-10-28T10:25:59.672Z,66.94
2022-10-28T10:27:05.047Z,67.00
2022-10-28T10:28:16.874Z,66.81
2022-10-28T10:29:19.198Z,66.60
2022-10-28T10:30:24.751Z,66.77
2022-10-28T10:31:29.823Z,66.64
2022-10-28T10:32:33.802Z,66.53
2022-10-28T10:33:39.173Z,66.23
2022-10-28T10:34:44.971Z,66.30
2022-10-28T10:35:59.755Z,66.58
2022-10-28T10:38:16.495Z,66.24
2022-10-28T10:39:23.157Z,66.44
2022-10-28T10:40:30.951Z,66.43
2022-10-28T10:41:35.246Z,66.21
2022-10-28T10:42:46.502Z,66.50
2022-10-28T10:44:00.115Z,66.26
2022-10-28T10:45:15.644Z,66.37
2022-10-28T10:46:18.705Z,66.12
2022-10-28T10:47:20.958Z,66.02
2022-10-28T10:48:23.467Z,66.07
2022-10-28T10:49:25.947Z,66.20
2022-10-28T10:51:41.212Z,65.75
2022-10-28T10:52:49.074Z,65.81
2022-10-28T10:53:54.542Z,65.85
2022-10-28T10:55:00.879Z,65.75
2022-10-28T10:56:05.857Z,65.85
2022-10-28T10:57:08.601Z,65.81
2022-10-28T10:58:20.833Z,65.88
2022-10-28T10:59:27.559Z,65.69
2022-10-28T11:00:35.525Z,65.78
2022-10-28T11:01:40.922Z,65.96
2022-10-28T11:02:49.030Z,65.68
2022-10-28T11:05:06.465Z,65.55
2022-10-28T11:06:23.678Z,65.46
2022-10-28T11:07:29.540Z,65.46
2022-10-28T11:08:38.303Z,65.43
2022-10-28T11:09:43.071Z,65.51
2022-10-28T11:10:44.686Z,65.39
2022-10-28T11:11:47.186Z,65.27
2022-10-28T11:12:52.486Z,65.26
2022-10-28T11:14:05.136Z,65.13
2022-10-28T11:15:21.598Z,64.99
2022-10-28T11:16:25.613Z,65.01
2022-10-28T11:17:30.009Z,64.98
2022-10-28T11:18:42.324Z,64.91
2022-10-28T11:19:44.822Z,64.95
2022-10-28T11:20:54.810Z,64.67
2022-10-28T11:22:12.831Z,64.79
2022-10-28T11:23:27.715Z,64.57
2022-10-28T11:24:44.275Z,64.73
2022-10-28T11:25:54.134Z,64.78
2022-10-28T11:27:05.084Z,64.44
2022-10-28T11:28:27.647Z,64.63
2022-10-28T11:29:30.271Z,64.57
2022-10-28T11:30:42.843Z,64.21
2022-10-28T11:32:17.564Z,64.67
2022-10-28T11:33:30.889Z,64.69
2022-10-28T11:34:51.870Z,64.72
2022-10-28T11:36:03.963Z,64.75
2022-10-28T11:37:15.471Z,64.53
2022-10-28T11:38:45.901Z,64.52
2022-10-28T11:39:58.336Z,64.61
2022-10-28T11:41:15.181Z,64.69
2022-10-28T11:42:28.707Z,64.59
2022-10-28T11:43:38.858Z,64.92
2022-10-28T11:44:47.717Z,64.80
2022-10-28T11:46:00.204Z,64.85
2022-10-28T11:47:18.563Z,64.84
2022-10-28T11:48:40.255Z,64.82
2022-10-28T11:50:08.336Z,65.06
2022-10-28T11:51:20.186Z,64.92
2022-10-28T11:52:31.155Z,65.14
2022-10-28T11:53:51.623Z,65.05
2022-10-28T11:55:01.961Z,65.14
2022-10-28T11:56:12.867Z,65.18
2022-10-28T11:57:18.360Z,64.97
2022-10-28T11:58:28.358Z,64.91
2022-10-28T11:59:54.952Z,65.11
2022-10-28T12:01:09.832Z,64.95
2022-10-28T12:02:30.432Z,65.08
2022-10-28T12:03:50.013Z,65.10
2022-10-28T12:05:03.638Z,65.30
2022-10-28T12:06:15.089Z,65.01
2022-10-28T12:07:52.397Z,65.02
2022-10-28T12:09:13.659Z,65.05
2022-10-28T12:10:34.382Z,65.10
2022-10-28T12:11:48.883Z,65.05
2022-10-28T12:12:59.951Z,65.32
2022-10-28T12:14:11.865Z,64.93
2022-10-28T12:15:21.064Z,65.05
2022-10-28T12:16:32.039Z,64.94
2022-10-28T12:17:41.245Z,65.01
2022-10-28T12:18:52.272Z,64.61
2022-10-28T12:19:57.966Z,64.90
2022-10-28T12:21:07.303Z,64.89
2022-10-28T12:22:15.380Z,64.65
2022-10-28T12:23:20.862Z,64.66
2022-10-28T12:24:26.391Z,64.30
2022-10-28T12:25:33.730Z,64.12
2022-10-28T12:26:40.925Z,63.91
2022-10-28T12:27:46.560Z,64.38
2022-10-28T12:28:52.808Z,64.13
2022-10-28T12:30:00.574Z,64.40
2022-10-28T12:31:04.820Z,64.14
2022-10-28T12:32:09.760Z,63.80
2022-10-28T12:33:18.279Z,64.11
2022-10-28T12:34:26.371Z,63.84
2022-10-28T12:35:32.263Z,64.20
2022-10-28T12:36:39.473Z,64.09
2022-10-28T12:37:48.725Z,63.83
2022-10-28T12:38:58.822Z,64.20
2022-10-28T12:40:12.434Z,64.06
2022-10-28T12:41:17.680Z,64.09
2022-10-28T12:42:23.440Z,63.90
2022-10-28T12:43:32.431Z,64.09
2022-10-28T12:44:38.691Z,64.05
2022-10-28T12:45:42.470Z,64.17
2022-10-28T12:46:54.919Z,63.98
2022-10-28T12:48:01.611Z,63.77
2022-10-28T12:49:09.455Z,63.47
2022-10-28T12:50:20.543Z,63.72
2022-10-28T12:51:29.874Z,63.89
2022-10-28T12:52:39.492Z,63.75
2022-10-28T12:53:47.916Z,64.06
2022-10-28T12:54:58.296Z,63.86
2022-10-28T12:56:03.843Z,63.93
2022-10-28T12:57:13.613Z,63.85
2022-10-28T12:58:23.142Z,63.97
2022-10-28T12:59:32.576Z,64.13
2022-10-28T13:00:38.685Z,63.90
2022-10-28T13:01:43.670Z,63.90
2022-10-28T13:02:53.316Z,63.93
2022-10-28T13:03:56.100Z,63.80
2022-10-28T13:04:59.432Z,63.73
2022-10-28T13:06:22.946Z,63.75
2022-10-28T13:07:48.836Z,63.76
2022-10-28T13:09:15.523Z,63.90
2022-10-28T13:10:26.641Z,64.04
2022-10-28T13:12:07.319Z,64.22
2022-10-28T13:13:24.067Z,63.99
2022-10-28T13:14:46.496Z,63.84
2022-10-28T13:16:00.202Z,63.79
2022-10-28T13:17:21.184Z,64.05
2022-10-28T13:18:57.902Z,64.13
2022-10-28T13:20:18.230Z,63.79
2022-10-28T13:21:30.873Z,63.93
2022-10-28T13:23:00.484Z,63.88
2022-10-28T13:24:14.267Z,63.91
2022-10-28T13:25:57.674Z,63.94
2022-10-28T13:27:03.853Z,63.99
2022-10-28T13:28:06.045Z,64.05
2022-10-28T13:29:19.590Z,63.51
2022-10-28T13:30:22.701Z,63.52
2022-10-28T13:31:40.727Z,63.96
2022-10-28T13:32:42.895Z,63.90
2022-10-28T13:33:53.813Z,63.40
2022-10-28T13:34:57.318Z,63.07
2022-10-28T13:36:11.579Z,62.95
2022-10-28T13:37:21.715Z,62.68
2022-10-28T13:38:27.206Z,62.23
2022-10-28T13:39:42.435Z,61.32
2022-10-28T13:41:09.949Z,60.94
2022-10-28T13:42:46.677Z,61.10
2022-10-28T13:44:23.966Z,60.60
2022-10-28T13:45:48.202Z,60.15
2022-10-28T13:47:24.341Z,59.81
2022-10-28T13:48:46.306Z,59.41
2022-10-28T13:50:32.720Z,59.15
2022-10-28T13:51:46.391Z,58.68
2022-10-28T13:53:44.467Z,58.63
2022-10-28T13:55:58.574Z,58.44
2022-10-28T13:57:12.969Z,58.63
2022-10-28T13:58:23.534Z,58.49
2022-10-28T13:59:34.746Z,57.79
2022-10-28T14:00:37.594Z,58.33
2022-10-28T14:02:01.993Z,57.75
2022-10-28T14:03:20.021Z,57.85
2022-10-28T14:04:28.770Z,57.92
2022-10-28T14:05:55.305Z,57.68
2022-10-28T14:07:01.890Z,58.01
2022-10-28T14:08:07.153Z,57.54
2022-10-28T14:09:20.710Z,57.90
2022-10-28T14:10:25.855Z,57.14
2022-10-28T14:11:29.078Z,57.88
2022-10-28T14:12:33.733Z,57.65
2022-10-28T14:13:38.899Z,57.56
2022-10-28T14:14:53.216Z,57.55
2022-10-28T14:16:17.884Z,57.60
2022-10-28T14:17:23.119Z,57.62
2022-10-28T14:19:49.491Z,58.01
2022-10-28T14:21:00.542Z,57.56
2022-10-28T14:22:06.251Z,58.14
2022-10-28T14:23:46.059Z,57.81
2022-10-28T14:24:47.667Z,58.23
2022-10-28T14:26:04.187Z,57.91
2022-10-28T14:27:31.790Z,58.24
2022-10-28T14:28:55.477Z,58.33
2022-10-28T14:30:28.079Z,58.37
2022-10-28T14:31:36.868Z,58.49
2022-10-28T14:32:57.876Z,58.35
2022-10-28T14:34:31.575Z,58.40
2022-10-28T14:35:41.088Z,58.62
2022-10-28T14:36:54.275Z,58.39
2022-10-28T14:38:46.342Z,58.69
2022-10-28T14:40:02.391Z,58.57